Terminal Aerodrome Forecast
Issued by NWS Charleston, WV

Current Version | Previous Version | Graphics & Text | Print | Product List | Glossary On
Versions: 1 2 3 4 5 6 7 8 9 10 11 12 13 14 15 16 17 18 19 20 21 22 23 24
000
FTUS41 KRLX 010800 AAA
TAFBKW
TAF AMD
KBKW 010829Z 0108/0206 00000KT P6SM SCT050
      TEMPO 0109/0112 5SM BR SCT001
     FM011400 VRB03KT P6SM BKN040
     FM011600 28005KT P6SM SCT050
     FM012300 VRB03KT P6SM SCT040=

USA.gov is the U.S. government's official web portal to all federal, state and local government web resources and services.